createdAt,value
2018-11-10T00:01:13.248Z,83.96
2018-11-10T00:03:46.703Z,84.28
2018-11-10T00:06:19.640Z,84.14
2018-11-10T00:08:52.651Z,84.58
2018-11-10T00:11:27.467Z,84.81
2018-11-10T00:14:00.520Z,84.71
2018-11-10T00:16:33.956Z,84.61
2018-11-10T00:19:06.866Z,84.64
2018-11-10T00:21:40.157Z,84.41
2018-11-10T00:24:13.742Z,84.61
2018-11-10T00:26:46.546Z,84.74
2018-11-10T00:29:18.901Z,84.50
2018-11-10T00:31:51.250Z,84.68
2018-11-10T00:34:24.455Z,84.16
2018-11-10T00:36:56.890Z,83.88
2018-11-10T00:39:29.759Z,84.08
2018-11-10T00:42:02.668Z,83.59
2018-11-10T00:44:35.518Z,83.10
2018-11-10T00:47:09.066Z,83.12
2018-11-10T00:49:41.621Z,83.15
2018-11-10T00:52:15.607Z,82.93
2018-11-10T00:54:48.641Z,82.77
2018-11-10T00:57:21.278Z,82.88
2018-11-10T00:59:54.441Z,82.80
2018-11-10T01:02:27.487Z,82.76
2018-11-10T01:05:00.032Z,82.67
2018-11-10T01:07:33.009Z,82.52
2018-11-10T01:10:05.277Z,82.23
2018-11-10T01:12:37.620Z,81.97
2018-11-10T01:15:13.839Z,82.12
2018-11-10T01:17:46.638Z,81.98
2018-11-10T01:20:20.679Z,81.92
2018-11-10T01:22:53.162Z,81.96
2018-11-10T01:25:26.002Z,81.68
2018-11-10T01:27:58.389Z,82.12
2018-11-10T01:30:31.208Z,82.57
2018-11-10T01:33:03.409Z,82.44
2018-11-10T01:35:49.560Z,82.74
2018-11-10T01:38:24.084Z,82.45
2018-11-10T01:40:57.204Z,82.81
2018-11-10T01:43:30.839Z,82.75
2018-11-10T01:46:03.513Z,82.86
2018-11-10T01:48:36.210Z,83.06
2018-11-10T01:51:09.519Z,83.12
2018-11-10T01:53:41.998Z,83.08
2018-11-10T01:56:15.178Z,82.89
2018-11-10T01:58:48.987Z,82.80
2018-11-10T02:01:21.456Z,82.12
2018-11-10T02:03:54.455Z,81.73
2018-11-10T02:06:27.654Z,81.99
2018-11-10T02:09:01.144Z,81.88
2018-11-10T02:11:34.197Z,81.77
2018-11-10T02:14:06.901Z,82.04
2018-11-10T02:16:39.555Z,81.61
2018-11-10T02:19:11.987Z,81.70
2018-11-10T02:21:44.321Z,81.78
2018-11-10T02:24:16.982Z,81.38
2018-11-10T02:26:50.705Z,81.24
2018-11-10T02:29:23.850Z,80.97
2018-11-10T02:31:56.579Z,81.13
2018-11-10T02:34:28.737Z,80.57
2018-11-10T02:37:02.020Z,80.60
2018-11-10T02:39:39.119Z,80.68
2018-11-10T02:42:24.581Z,79.77
2018-11-10T02:45:14.219Z,79.89
2018-11-10T02:48:03.108Z,80.44
2018-11-10T02:50:38.970Z,79.71
2018-11-10T02:53:11.160Z,79.70
2018-11-10T02:55:43.425Z,80.02
2018-11-10T02:58:16.393Z,79.44
2018-11-10T03:00:49.070Z,79.10
2018-11-10T03:03:22.625Z,78.82
2018-11-10T03:05:55.188Z,78.72
2018-11-10T03:08:28.307Z,78.22
2018-11-10T03:11:00.647Z,78.62
2018-11-10T03:13:33.516Z,78.15
2018-11-10T03:16:06.149Z,77.95
2018-11-10T03:18:38.788Z,78.24
2018-11-10T03:21:11.222Z,77.86
2018-11-10T03:23:43.473Z,77.79
2018-11-10T03:26:16.548Z,77.59
2018-11-10T03:28:50.112Z,77.28
2018-11-10T03:31:23.274Z,76.83
2018-11-10T03:33:57.207Z,76.65
2018-11-10T03:36:29.876Z,75.97
2018-11-10T03:39:02.032Z,76.10
2018-11-10T03:41:34.684Z,76.25
2018-11-10T03:44:07.995Z,75.81
2018-11-10T03:46:40.037Z,74.84
2018-11-10T03:49:12.563Z,75.00
2018-11-10T03:51:45.187Z,74.82
2018-11-10T03:54:17.326Z,74.28
2018-11-10T03:56:50.456Z,75.13
2018-11-10T03:59:20.428Z,74.68
2018-11-10T04:01:49.775Z,74.31
2018-11-10T04:04:19.080Z,73.57
2018-11-10T04:06:48.354Z,73.42
2018-11-10T04:09:17.815Z,73.73
2018-11-10T04:11:47.665Z,73.31
2018-11-10T04:14:17.035Z,72.67
2018-11-10T04:16:46.388Z,72.62
2018-11-10T04:19:15.840Z,72.34
2018-11-10T04:21:45.210Z,72.20
2018-11-10T04:24:14.466Z,72.20
2018-11-10T04:26:44.285Z,71.92
2018-11-10T04:29:13.600Z,72.10
2018-11-10T04:31:44.372Z,72.07
2018-11-10T04:34:13.883Z,71.70
2018-11-10T04:36:43.463Z,71.43
2018-11-10T04:39:12.787Z,71.10
2018-11-10T04:41:44.946Z,70.92
2018-11-10T04:44:14.589Z,71.26
2018-11-10T04:46:44.923Z,71.21
2018-11-10T04:49:14.524Z,70.87
2018-11-10T04:51:44.096Z,71.16
2018-11-10T04:54:13.757Z,70.96
2018-11-10T04:56:44.031Z,70.88
2018-11-10T04:59:13.271Z,70.60
2018-11-10T05:01:42.762Z,70.73
2018-11-10T05:04:12.097Z,70.78
2018-11-10T05:06:41.477Z,70.37
2018-11-10T05:09:11.857Z,70.49
2018-11-10T05:11:41.779Z,70.50
2018-11-10T05:14:11.177Z,70.29
2018-11-10T05:16:40.581Z,70.22
2018-11-10T05:19:10.451Z,70.62
2018-11-10T05:21:40.207Z,71.17
2018-11-10T05:24:09.897Z,72.98
2018-11-10T05:26:39.317Z,73.61
2018-11-10T05:29:09.044Z,74.19
2018-11-10T05:31:38.481Z,76.67
2018-11-10T05:34:08.373Z,78.25
2018-11-10T05:36:38.269Z,80.17
2018-11-10T05:39:09.057Z,81.40
2018-11-10T05:41:38.407Z,82.73
2018-11-10T05:44:07.783Z,85.01
2018-11-10T05:46:37.143Z,86.96
2018-11-10T05:49:06.831Z,87.35
2018-11-10T05:51:36.535Z,89.56
2018-11-10T05:54:06.903Z,91.09
2018-11-10T05:56:36.561Z,92.48
2018-11-10T05:59:06.361Z,92.78
2018-11-10T06:01:36.589Z,93.53
2018-11-10T06:04:05.993Z,95.17
2018-11-10T06:06:35.425Z,95.51
2018-11-10T06:09:06.674Z,96.61
2018-11-10T06:11:36.171Z,97.07
2018-11-10T06:14:06.530Z,96.93
2018-11-10T06:16:36.078Z,98.77
2018-11-10T06:19:06.004Z,97.52
2018-11-10T06:21:35.378Z,98.01
2018-11-10T06:24:06.478Z,98.76
2018-11-10T06:26:35.837Z,99.04
2018-11-10T06:29:05.584Z,98.69
2018-11-10T06:31:35.045Z,99.47
2018-11-10T06:34:07.211Z,99.78
2018-11-10T06:36:38.822Z,100.00
2018-11-10T06:39:10.588Z,100.00
2018-11-10T06:41:40.482Z,100.00
2018-11-10T06:44:10.461Z,100.00
2018-11-10T06:46:40.714Z,99.95
2018-11-10T06:49:11.230Z,100.00
2018-11-10T06:51:41.534Z,99.64
2018-11-10T06:54:12.714Z,100.00
2018-11-10T06:56:42.118Z,100.00
2018-11-10T06:59:11.789Z,100.00
2018-11-10T07:01:41.223Z,100.00
2018-11-10T07:04:10.823Z,100.00
2018-11-10T07:06:41.027Z,100.00
2018-11-10T07:09:12.085Z,100.00
2018-11-10T07:11:42.289Z,100.00
2018-11-10T07:14:11.800Z,100.00
2018-11-10T07:16:41.489Z,100.00
2018-11-10T07:19:10.993Z,100.00
2018-11-10T07:21:41.228Z,100.00
2018-11-10T07:24:11.650Z,100.00
2018-11-10T07:26:40.925Z,100.00
2018-11-10T07:29:13.318Z,100.00
2018-11-10T07:31:42.786Z,100.00
2018-11-10T07:34:12.261Z,100.00
2018-11-10T07:36:41.638Z,100.00
2018-11-10T07:39:13.305Z,100.00
2018-11-10T07:41:42.783Z,100.00
2018-11-10T07:44:14.898Z,99.90
2018-11-10T07:46:44.503Z,100.00
2018-11-10T07:49:16.698Z,100.00
2018-11-10T07:51:46.335Z,98.67
2018-11-10T07:54:17.586Z,100.00
2018-11-10T07:56:47.118Z,100.00
2018-11-10T07:59:16.561Z,98.42
2018-11-10T08:01:46.025Z,99.56
2018-11-10T08:04:17.043Z,98.86
2018-11-10T08:06:46.405Z,99.06
2018-11-10T08:09:15.971Z,99.60
2018-11-10T08:11:45.304Z,98.44
2018-11-10T08:14:15.186Z,97.73
2018-11-10T08:16:46.421Z,98.48
2018-11-10T08:19:17.723Z,97.67
2018-11-10T08:21:47.143Z,98.13
2018-11-10T08:24:16.689Z,97.14
2018-11-10T08:26:46.674Z,97.34
2018-11-10T08:29:18.612Z,97.98
2018-11-10T08:31:48.150Z,96.55
2018-11-10T08:34:18.376Z,95.69
2018-11-10T08:36:47.732Z,95.35
2018-11-10T08:39:18.464Z,95.31
2018-11-10T08:41:47.905Z,94.67
2018-11-10T08:44:18.110Z,95.35
2018-11-10T08:46:47.512Z,94.13
2018-11-10T08:49:17.863Z,94.37
2018-11-10T08:51:47.372Z,93.29
2018-11-10T08:54:16.990Z,93.74
2018-11-10T08:56:46.598Z,93.30
2018-11-10T08:59:17.139Z,93.29
2018-11-10T09:01:46.701Z,93.00
2018-11-10T09:04:18.051Z,94.26
2018-11-10T09:06:47.807Z,93.05
2018-11-10T09:09:18.396Z,93.56
2018-11-10T09:11:48.108Z,93.81
2018-11-10T09:14:18.109Z,94.32
2018-11-10T09:16:47.511Z,94.09
2018-11-10T09:19:16.946Z,93.66
2018-11-10T09:21:46.478Z,93.76
2018-11-10T09:24:16.742Z,94.06
2018-11-10T09:26:46.962Z,94.54
2018-11-10T09:29:16.798Z,94.74
2018-11-10T09:31:47.173Z,93.79
2018-11-10T09:34:16.706Z,94.40
2018-11-10T09:36:46.276Z,94.72
2018-11-10T09:39:15.925Z,94.28
2018-11-10T09:41:46.791Z,94.03
2018-11-10T09:44:16.438Z,94.30
2018-11-10T09:46:46.703Z,94.74
2018-11-10T09:49:16.206Z,94.68
2018-11-10T09:51:45.593Z,94.05
2018-11-10T09:54:15.041Z,94.08
2018-11-10T09:56:44.503Z,93.91
2018-11-10T09:59:14.283Z,93.64
2018-11-10T10:01:43.852Z,93.88
2018-11-10T10:04:13.060Z,92.85
2018-11-10T10:06:42.431Z,92.94
2018-11-10T10:09:12.437Z,93.35
2018-11-10T10:11:42.661Z,93.10
2018-11-10T10:14:11.875Z,94.44
2018-11-10T10:16:41.204Z,94.80
2018-11-10T10:19:10.938Z,95.44
2018-11-10T10:21:40.334Z,94.55
2018-11-10T10:24:09.764Z,95.51
2018-11-10T10:26:40.033Z,94.98
2018-11-10T10:29:09.560Z,94.52
2018-11-10T10:31:39.815Z,94.72
2018-11-10T10:34:09.371Z,94.79
2018-11-10T10:36:38.555Z,94.34
2018-11-10T10:39:09.065Z,94.75
2018-11-10T10:41:39.068Z,95.40
2018-11-10T10:44:09.195Z,96.20
2018-11-10T10:46:38.554Z,97.03
2018-11-10T10:49:07.888Z,97.61
2018-11-10T10:51:37.566Z,99.45
2018-11-10T10:54:06.855Z,100.00
2018-11-10T10:56:36.324Z,100.00
2018-11-10T10:59:05.654Z,100.00
2018-11-10T11:01:40.336Z,100.00
2018-11-10T11:04:14.848Z,100.00
2018-11-10T11:06:44.138Z,100.00
2018-11-10T11:09:13.593Z,100.00
2018-11-10T11:11:43.034Z,100.00
2018-11-10T11:14:12.535Z,100.00
2018-11-10T11:16:42.039Z,100.00
2018-11-10T11:19:11.335Z,100.00
2018-11-10T11:21:40.756Z,100.00
2018-11-10T11:24:10.143Z,100.00
2018-11-10T11:26:39.572Z,100.00
2018-11-10T11:29:09.279Z,100.00
2018-11-10T11:31:38.964Z,100.00
2018-11-10T11:34:08.542Z,100.00
2018-11-10T11:36:38.022Z,100.00
2018-11-10T11:39:10.105Z,100.00
2018-11-10T11:41:39.739Z,100.00
2018-11-10T11:44:09.482Z,100.00
2018-11-10T11:46:38.693Z,100.00
2018-11-10T11:49:08.074Z,100.00
2018-11-10T11:51:40.410Z,100.00
2018-11-10T11:54:09.813Z,100.00
2018-11-10T11:56:39.413Z,100.00
2018-11-10T11:59:08.702Z,100.00
2018-11-10T12:01:38.173Z,100.00
2018-11-10T12:04:07.684Z,100.00
2018-11-10T12:06:37.064Z,100.00
2018-11-10T12:09:08.920Z,100.00
2018-11-10T12:11:38.216Z,100.00
2018-11-10T12:14:07.516Z,100.00
2018-11-10T12:16:37.022Z,100.00
2018-11-10T12:19:06.813Z,100.00
2018-11-10T12:21:36.468Z,100.00
2018-11-10T12:24:05.954Z,100.00
2018-11-10T12:26:35.844Z,100.00
2018-11-10T12:29:05.674Z,100.00
2018-11-10T12:31:35.351Z,100.00
2018-11-10T12:34:05.031Z,100.00
2018-11-10T12:36:34.523Z,100.00
2018-11-10T12:39:04.657Z,100.00
2018-11-10T12:41:34.281Z,100.00
2018-11-10T12:44:04.117Z,100.00
2018-11-10T12:46:33.524Z,100.00
2018-11-10T12:49:03.164Z,100.00
2018-11-10T12:51:32.482Z,100.00
2018-11-10T12:54:01.806Z,100.00
2018-11-10T12:56:31.086Z,100.00
2018-11-10T12:59:00.549Z,100.00
2018-11-10T13:01:30.546Z,100.00
2018-11-10T13:04:00.136Z,100.00
2018-11-10T13:06:29.544Z,100.00
2018-11-10T13:08:59.462Z,100.00
2018-11-10T13:11:29.133Z,100.00
2018-11-10T13:13:58.498Z,100.00
2018-11-10T13:16:27.788Z,100.00
2018-11-10T13:18:57.164Z,100.00
2018-11-10T13:21:26.674Z,100.00
2018-11-10T13:23:56.034Z,100.00
2018-11-10T13:26:25.431Z,100.00
2018-11-10T13:28:54.783Z,100.00
2018-11-10T13:31:24.363Z,100.00
2018-11-10T13:33:53.617Z,100.00
2018-11-10T13:36:23.021Z,100.00
2018-11-10T13:38:52.482Z,100.00
2018-11-10T13:41:21.858Z,100.00
2018-11-10T13:43:52.087Z,100.00
2018-11-10T13:46:22.280Z,100.00
2018-11-10T13:48:52.128Z,100.00
2018-11-10T13:51:22.059Z,100.00
2018-11-10T13:53:51.684Z,100.00
2018-11-10T13:56:21.535Z,100.00
2018-11-10T13:58:51.227Z,100.00
2018-11-10T14:01:20.758Z,100.00
2018-11-10T14:03:50.198Z,100.00
2018-11-10T14:06:19.599Z,100.00
2018-11-10T14:08:49.621Z,100.00
2018-11-10T14:11:18.979Z,100.00
2018-11-10T14:13:48.595Z,100.00
2018-11-10T14:16:18.112Z,100.00
2018-11-10T14:18:47.846Z,100.00
2018-11-10T14:21:17.455Z,100.00
2018-11-10T14:23:47.226Z,100.00
2018-11-10T14:26:16.764Z,100.00
2018-11-10T14:28:47.818Z,100.00
2018-11-10T14:31:17.695Z,100.00
2018-11-10T14:33:47.318Z,100.00
2018-11-10T14:36:16.899Z,100.00
2018-11-10T14:38:46.354Z,100.00
2018-11-10T14:41:16.089Z,100.00
2018-11-10T14:43:45.595Z,100.00
2018-11-10T14:46:14.957Z,100.00
2018-11-10T14:48:44.632Z,100.00
2018-11-10T14:51:14.132Z,100.00
2018-11-10T14:53:43.511Z,100.00
2018-11-10T14:56:12.971Z,100.00
2018-11-10T14:58:42.519Z,100.00
2018-11-10T15:01:12.314Z,100.00
2018-11-10T15:03:42.476Z,100.00
2018-11-10T15:06:16.351Z,100.00
2018-11-10T15:08:51.989Z,100.00
2018-11-10T15:11:25.995Z,100.00
2018-11-10T15:13:59.575Z,100.00
2018-11-10T15:16:32.702Z,100.00
2018-11-10T15:19:07.119Z,100.00
2018-11-10T15:21:40.152Z,100.00
2018-11-10T15:24:09.970Z,100.00
2018-11-10T15:26:39.610Z,100.00
2018-11-10T15:29:09.276Z,100.00
2018-11-10T15:31:38.753Z,100.00
2018-11-10T15:34:08.340Z,100.00
2018-11-10T15:36:37.901Z,100.00
2018-11-10T15:39:08.917Z,100.00
2018-11-10T15:41:38.447Z,100.00
2018-11-10T15:44:07.959Z,100.00
2018-11-10T15:46:38.229Z,100.00
2018-11-10T15:49:07.748Z,100.00
2018-11-10T15:51:37.422Z,100.00
2018-11-10T15:54:06.927Z,100.00
2018-11-10T15:56:36.379Z,100.00
2018-11-10T15:59:06.481Z,100.00
2018-11-10T16:01:35.939Z,100.00
2018-11-10T16:04:05.891Z,100.00
2018-11-10T16:06:35.297Z,100.00
2018-11-10T16:09:07.806Z,100.00
2018-11-10T16:11:37.348Z,100.00
2018-11-10T16:14:06.980Z,100.00
2018-11-10T16:16:36.436Z,100.00
2018-11-10T16:19:05.948Z,100.00
2018-11-10T16:21:35.332Z,100.00
2018-11-10T16:24:04.894Z,100.00
2018-11-10T16:26:34.846Z,100.00
2018-11-10T16:29:04.441Z,100.00
2018-11-10T16:31:34.066Z,100.00
2018-11-10T16:34:03.500Z,100.00
2018-11-10T16:36:33.225Z,100.00
2018-11-10T16:39:03.413Z,100.00
2018-11-10T16:41:34.183Z,100.00
2018-11-10T16:44:04.233Z,100.00
2018-11-10T16:46:34.189Z,100.00
2018-11-10T16:49:03.870Z,100.00
2018-11-10T16:51:33.191Z,100.00
2018-11-10T16:54:02.681Z,100.00
2018-11-10T16:56:32.006Z,100.00
2018-11-10T16:59:01.445Z,100.00
2018-11-10T17:01:30.753Z,100.00
2018-11-10T17:04:00.257Z,99.81
2018-11-10T17:06:29.589Z,99.22
2018-11-10T17:08:59.075Z,98.27
2018-11-10T17:11:28.881Z,98.02
2018-11-10T17:13:58.352Z,99.33
2018-11-10T17:16:28.522Z,97.67
2018-11-10T17:18:58.974Z,96.85
2018-11-10T17:21:28.577Z,97.23
2018-11-10T17:24:00.193Z,96.91
2018-11-10T17:26:29.783Z,96.09
2018-11-10T17:29:02.448Z,95.91
2018-11-10T17:31:31.799Z,94.92
2018-11-10T17:34:02.841Z,95.43
2018-11-10T17:36:33.347Z,95.37
2018-11-10T17:39:03.385Z,95.14
2018-11-10T17:41:33.707Z,93.98
2018-11-10T17:44:04.920Z,93.42
2018-11-10T17:46:34.516Z,92.61
2018-11-10T17:49:04.904Z,94.15
2018-11-10T17:51:35.272Z,92.87
2018-11-10T17:54:04.775Z,94.24
2018-11-10T17:56:34.153Z,93.38
2018-11-10T17:59:04.416Z,92.62
2018-11-10T18:01:33.754Z,92.08
2018-11-10T18:04:03.596Z,92.15
2018-11-10T18:06:32.922Z,91.97
2018-11-10T18:09:02.918Z,91.56
2018-11-10T18:11:32.296Z,91.85
2018-11-10T18:14:01.662Z,92.71
2018-11-10T18:16:31.726Z,92.27
2018-11-10T18:19:01.358Z,92.87
2018-11-10T18:21:31.419Z,91.85
2018-11-10T18:24:00.728Z,93.42
2018-11-10T18:26:29.972Z,92.51
2018-11-10T18:28:59.235Z,94.60
2018-11-10T18:31:28.721Z,95.78
2018-11-10T18:33:58.118Z,97.56
2018-11-10T18:36:27.458Z,98.52
2018-11-10T18:38:56.892Z,98.60
2018-11-10T18:41:26.458Z,99.13
2018-11-10T18:43:55.845Z,99.95
2018-11-10T18:46:25.196Z,100.00
2018-11-10T18:48:54.645Z,100.00
2018-11-10T18:51:24.028Z,100.00
2018-11-10T18:53:53.556Z,100.00
2018-11-10T18:56:22.963Z,100.00
2018-11-10T18:58:52.474Z,100.00
2018-11-10T19:01:22.228Z,100.00
2018-11-10T19:03:51.497Z,100.00
2018-11-10T19:06:21.001Z,100.00
2018-11-10T19:08:50.506Z,100.00
2018-11-10T19:11:19.887Z,100.00
2018-11-10T19:13:49.342Z,100.00
2018-11-10T19:16:18.655Z,100.00
2018-11-10T19:18:48.115Z,100.00
2018-11-10T19:21:17.628Z,100.00
2018-11-10T19:23:47.003Z,100.00
2018-11-10T19:26:16.418Z,100.00
2018-11-10T19:28:46.554Z,100.00
2018-11-10T19:31:17.136Z,100.00
2018-11-10T19:33:46.731Z,100.00
2018-11-10T19:36:22.546Z,100.00
2018-11-10T19:38:53.260Z,100.00
2018-11-10T19:41:23.055Z,100.00
2018-11-10T19:43:52.564Z,100.00
2018-11-10T19:46:22.037Z,100.00
2018-11-10T19:48:51.433Z,100.00
2018-11-10T19:51:21.022Z,100.00
2018-11-10T19:53:50.531Z,100.00
2018-11-10T19:56:20.119Z,100.00
2018-11-10T19:58:49.501Z,100.00
2018-11-10T20:01:18.894Z,100.00
2018-11-10T20:03:48.312Z,100.00
2018-11-10T20:06:18.312Z,100.00
2018-11-10T20:08:47.764Z,100.00
2018-11-10T20:11:17.149Z,100.00
2018-11-10T20:13:46.697Z,100.00
2018-11-10T20:16:18.354Z,100.00
2018-11-10T20:18:48.772Z,100.00
2018-11-10T20:21:18.373Z,100.00
2018-11-10T20:23:48.135Z,100.00
2018-11-10T20:26:17.820Z,100.00
2018-11-10T20:28:47.348Z,100.00
2018-11-10T20:31:17.178Z,100.00
2018-11-10T20:33:46.684Z,100.00
2018-11-10T20:36:16.068Z,100.00
2018-11-10T20:38:45.471Z,100.00
2018-11-10T20:41:14.895Z,100.00
2018-11-10T20:43:44.374Z,100.00
2018-11-10T20:46:13.881Z,100.00
2018-11-10T20:48:43.420Z,100.00
2018-11-10T20:51:13.569Z,100.00
2018-11-10T20:53:42.988Z,100.00
2018-11-10T20:56:13.422Z,100.00
2018-11-10T20:58:42.754Z,100.00
2018-11-10T21:01:12.165Z,100.00
2018-11-10T21:03:41.557Z,100.00
2018-11-10T21:06:10.829Z,100.00
2018-11-10T21:08:40.429Z,100.00
2018-11-10T21:11:10.766Z,100.00
2018-11-10T21:13:40.134Z,100.00
2018-11-10T21:16:09.499Z,100.00
2018-11-10T21:18:38.910Z,100.00
2018-11-10T21:21:08.432Z,100.00
2018-11-10T21:23:38.118Z,100.00
2018-11-10T21:26:07.523Z,100.00
2018-11-10T21:28:37.118Z,100.00
2018-11-10T21:31:06.702Z,100.00
2018-11-10T21:33:36.366Z,100.00
2018-11-10T21:36:05.644Z,100.00
2018-11-10T21:38:35.276Z,100.00
2018-11-10T21:41:06.049Z,100.00
2018-11-10T21:43:35.374Z,100.00
2018-11-10T21:46:04.974Z,100.00
2018-11-10T21:48:34.460Z,100.00
2018-11-10T21:51:04.056Z,100.00
2018-11-10T21:53:33.366Z,100.00
2018-11-10T21:56:03.321Z,100.00
2018-11-10T21:58:32.865Z,100.00
2018-11-10T22:01:02.276Z,100.00
2018-11-10T22:03:31.737Z,100.00
2018-11-10T22:06:01.323Z,100.00
2018-11-10T22:08:30.813Z,100.00
2018-11-10T22:11:00.324Z,100.00
2018-11-10T22:13:29.952Z,100.00
2018-11-10T22:15:59.590Z,100.00
2018-11-10T22:18:29.108Z,100.00
2018-11-10T22:20:58.658Z,100.00
2018-11-10T22:23:29.473Z,100.00
2018-11-10T22:25:58.830Z,100.00
2018-11-10T22:28:28.438Z,100.00
2018-11-10T22:30:58.516Z,100.00
2018-11-10T22:33:28.443Z,100.00
2018-11-10T22:35:58.792Z,100.00
2018-11-10T22:38:28.565Z,100.00
2018-11-10T22:40:58.319Z,100.00
2018-11-10T22:43:27.736Z,100.00
2018-11-10T22:45:57.250Z,100.00
2018-11-10T22:48:26.766Z,100.00
2018-11-10T22:50:56.337Z,100.00
2018-11-10T22:53:26.362Z,100.00
2018-11-10T22:55:55.854Z,100.00
2018-11-10T22:58:25.415Z,100.00
2018-11-10T23:01:00.046Z,100.00
2018-11-10T23:03:29.777Z,100.00
2018-11-10T23:05:59.595Z,100.00
2018-11-10T23:08:29.287Z,100.00
2018-11-10T23:10:58.788Z,100.00
2018-11-10T23:13:28.331Z,100.00
2018-11-10T23:15:57.858Z,100.00
2018-11-10T23:18:27.666Z,100.00
2018-11-10T23:20:57.207Z,100.00
2018-11-10T23:23:26.798Z,100.00
2018-11-10T23:25:56.292Z,100.00
2018-11-10T23:28:26.056Z,100.00
2018-11-10T23:30:55.514Z,100.00
2018-11-10T23:33:25.214Z,100.00
2018-11-10T23:35:57.061Z,100.00
2018-11-10T23:38:27.491Z,100.00
2018-11-10T23:40:57.001Z,100.00
2018-11-10T23:43:26.496Z,100.00
2018-11-10T23:45:55.871Z,100.00
2018-11-10T23:48:25.385Z,100.00
2018-11-10T23:50:54.846Z,100.00
2018-11-10T23:53:24.919Z,100.00
2018-11-10T23:55:54.401Z,100.00
2018-11-10T23:58:24.168Z,100.00
